Time;durP1;ratioP1;P1;durP2;ratioP2;P2;SDS_P1;SDS_P2;PMS_P1;PMS_P2;Temp;Humidity;BMP_temperature;BMP_pressure;BME280_temperature;BME280_humidity;BME280_pressure;Samples;Min_cycle;Max_cycle;Signal;HPM_P1;HPM_P2
2022/08/01 00:00:37;;;;;;;6.15;1.60;;;;;;;;;;5072897;28;20453;-65
2022/08/01 00:03:02;;;;;;;4.30;1.50;;;;;;;;;;5072905;28;20499;-65
2022/08/01 00:05:28;;;;;;;5.93;1.42;;;;;;;;;;5072843;28;20028;-65
2022/08/01 00:07:53;;;;;;;4.82;1.75;;;;;;;;;;5072919;28;20654;-65
2022/08/01 00:10:19;;;;;;;6.20;1.77;;;;;;;;;;5072571;28;20397;-65
2022/08/01 00:12:45;;;;;;;2.92;1.52;;;;;;;;;;5072384;28;20020;-65
2022/08/01 00:15:13;;;;;;;6.90;1.60;;;;;;;;;;5072468;28;20093;-65
2022/08/01 00:17:39;;;;;;;4.20;1.67;;;;;;;;;;5072681;28;20063;-65
2022/08/01 00:20:07;;;;;;;5.75;1.63;;;;;;;;;;5072827;28;20134;-65
2022/08/01 00:22:34;;;;;;;2.55;1.40;;;;;;;;;;5085281;28;20040;-65
2022/08/01 00:25:01;;;;;;;4.10;1.33;;;;;;;;;;5093080;28;20028;-66
2022/08/01 00:27:27;;;;;;;4.80;1.17;;;;;;;;;;5092708;28;20096;-65
2022/08/01 00:29:53;;;;;;;4.28;1.20;;;;;;;;;;5093008;28;20444;-66
2022/08/01 00:32:18;;;;;;;5.05;1.40;;;;;;;;;;5092926;28;20028;-65
2022/08/01 00:34:44;;;;;;;4.03;1.50;;;;;;;;;;5092807;28;20085;-64
2022/08/01 00:37:09;;;;;;;2.83;1.40;;;;;;;;;;5092697;28;20035;-64
2022/08/01 00:39:35;;;;;;;3.70;1.50;;;;;;;;;;5092017;28;20054;-65
2022/08/01 00:42:07;;;;;;;9.38;1.95;;;;;;;;;;5092418;28;20055;-65
2022/08/01 00:44:34;;;;;;;5.63;1.70;;;;;;;;;;5092674;28;20024;-65
2022/08/01 00:46:59;;;;;;;3.15;1.33;;;;;;;;;;5092668;28;20117;-65
2022/08/01 00:49:25;;;;;;;6.80;1.60;;;;;;;;;;5092426;28;20020;-66
2022/08/01 00:51:51;;;;;;;5.53;1.40;;;;;;;;;;5086181;28;20128;-65
2022/08/01 00:54:16;;;;;;;3.85;1.40;;;;;;;;;;5071041;28;20143;-64
2022/08/01 00:56:42;;;;;;;7.97;1.50;;;;;;;;;;5071833;28;20028;-66
2022/08/01 00:59:08;;;;;;;7.40;1.80;;;;;;;;;;5072161;28;20055;-65
2022/08/01 01:01:34;;;;;;;3.67;1.42;;;;;;;;;;5072168;28;20430;-65
2022/08/01 01:04:00;;;;;;;5.72;1.52;;;;;;;;;;5072022;28;20033;-66
2022/08/01 01:06:44;;;;;;;2.35;1.52;;;;;;;;;;5071996;28;20349;-65
2022/08/01 01:09:37;;;;;;;3.85;1.80;;;;;;;;;;5071661;28;20033;-66
2022/08/01 01:12:28;;;;;;;6.65;1.70;;;;;;;;;;5071900;28;20477;-65
2022/08/01 01:15:08;;;;;;;4.35;1.60;;;;;;;;;;5071675;28;20492;-65
2022/08/01 01:17:51;;;;;;;3.85;1.50;;;;;;;;;;5071721;28;20020;-65
2022/08/01 01:20:18;;;;;;;4.82;1.35;;;;;;;;;;5071766;28;20087;-65
2022/08/01 01:22:52;;;;;;;2.08;1.30;;;;;;;;;;5085835;28;20123;-66
2022/08/01 01:25:34;;;;;;;4.88;1.42;;;;;;;;;;5091576;28;20077;-66
2022/08/01 01:28:00;;;;;;;5.00;1.60;;;;;;;;;;5091981;28;20020;-65
2022/08/01 01:30:28;;;;;;;3.05;1.60;;;;;;;;;;5091978;28;20388;-64
2022/08/01 01:32:56;;;;;;;4.50;1.73;;;;;;;;;;5091660;28;20016;-63
2022/08/01 01:35:25;;;;;;;3.70;1.50;;;;;;;;;;5091467;28;20028;-64
2022/08/01 01:37:58;;;;;;;5.10;1.60;;;;;;;;;;5091769;28;20119;-64
2022/08/01 01:40:25;;;;;;;3.55;1.55;;;;;;;;;;5091579;28;20020;-64
2022/08/01 01:42:51;;;;;;;6.18;1.70;;;;;;;;;;5091776;28;20500;-64
2022/08/01 01:45:18;;;;;;;4.78;1.80;;;;;;;;;;5091416;28;20031;-64
2022/08/01 01:47:45;;;;;;;5.53;1.55;;;;;;;;;;5091604;28;20109;-63
2022/08/01 01:50:12;;;;;;;3.03;1.65;;;;;;;;;;5091577;28;20271;-64
2022/08/01 01:52:40;;;;;;;2.92;1.40;;;;;;;;;;5091306;28;20587;-64
2022/08/01 01:55:08;;;;;;;2.85;1.40;;;;;;;;;;5091412;28;20035;-64
2022/08/01 01:57:38;;;;;;;2.38;1.40;;;;;;;;;;5091339;28;20020;-63
2022/08/01 02:00:06;;;;;;;;;;;;;;;;;;5092009;28;20518;-64
2022/08/01 02:02:33;;;;;;;5.63;1.27;;;;;;;;;;5091435;28;19911;-65
2022/08/01 02:05:00;;;;;;;2.90;1.23;;;;;;;;;;5091698;28;20345;-64
2022/08/01 02:07:28;;;;;;;3.70;1.33;;;;;;;;;;5091020;28;20024;-64
2022/08/01 02:09:55;;;;;;;4.43;1.50;;;;;;;;;;5091362;28;20035;-64
2022/08/01 02:12:24;;;;;;;4.07;1.33;;;;;;;;;;5091231;28;20041;-65
2022/08/01 02:14:53;;;;;;;5.80;1.50;;;;;;;;;;5091142;28;20046;-65
2022/08/01 02:17:20;;;;;;;3.80;1.50;;;;;;;;;;5091055;28;20389;-64
2022/08/01 02:19:46;;;;;;;3.75;1.70;;;;;;;;;;5091131;28;20028;-65
2022/08/01 02:22:22;;;;;;;9.10;1.70;;;;;;;;;;5090605;28;20036;-65
2022/08/01 02:24:56;;;;;;;4.72;1.55;;;;;;;;;;5091151;28;20092;-65
2022/08/01 02:27:44;;;;;;;5.75;1.40;;;;;;;;;;5091060;28;20079;-64
2022/08/01 02:30:13;;;;;;;8.88;1.98;;;;;;;;;;5091137;28;20024;-65
2022/08/01 02:32:55;;;;;;;9.60;1.80;;;;;;;;;;5090983;28;20080;-64
2022/08/01 02:35:27;;;;;;;5.80;1.58;;;;;;;;;;5090857;28;20027;-65
2022/08/01 02:37:54;;;;;;;3.90;1.70;;;;;;;;;;5077720;28;20022;-64
2022/08/01 02:40:20;;;;;;;9.02;1.70;;;;;;;;;;5050516;28;20482;-65
2022/08/01 02:42:52;;;;;;;5.63;1.90;;;;;;;;;;5050806;28;20145;-65
2022/08/01 02:45:20;;;;;;;4.35;1.45;;;;;;;;;;5050565;28;20029;-65
2022/08/01 02:47:49;;;;;;;7.95;1.65;;;;;;;;;;5050846;28;20588;-64
2022/08/01 02:50:17;;;;;;;5.95;1.52;;;;;;;;;;5050793;28;20029;-65
2022/08/01 02:52:45;;;;;;;4.00;1.50;;;;;;;;;;5050470;28;20023;-65
2022/08/01 02:55:13;;;;;;;2.97;1.42;;;;;;;;;;5050637;28;20359;-65
2022/08/01 02:57:41;;;;;;;4.88;2.33;;;;;;;;;;5050693;28;20028;-64
2022/08/01 03:00:08;;;;;;;6.57;2.08;;;;;;;;;;5050653;28;20027;-64
2022/08/01 03:02:35;;;;;;;3.63;1.60;;;;;;;;;;5052777;28;20048;-64
2022/08/01 03:05:03;;;;;;;3.85;1.63;;;;;;;;;;5054573;28;20558;-65
2022/08/01 03:07:29;;;;;;;4.82;1.40;;;;;;;;;;5053974;28;20033;-65
2022/08/01 03:09:57;;;;;;;5.90;1.55;;;;;;;;;;5054283;28;20028;-64
2022/08/01 03:12:27;;;;;;;4.95;1.50;;;;;;;;;;5054463;28;20029;-65
2022/08/01 03:14:55;;;;;;;3.33;1.40;;;;;;;;;;5054101;28;20553;-64
2022/08/01 03:17:24;;;;;;;3.47;1.55;;;;;;;;;;5054026;28;20118;-64
2022/08/01 03:19:52;;;;;;;4.22;1.58;;;;;;;;;;5054044;28;20048;-65
2022/08/01 03:22:20;;;;;;;5.07;1.50;;;;;;;;;;5074905;28;20044;-65
2022/08/01 03:24:49;;;;;;;7.78;1.40;;;;;;;;;;5094342;28;20016;-64
2022/08/01 03:27:17;;;;;;;4.45;1.50;;;;;;;;;;5094052;28;20392;-64
2022/08/01 03:29:44;;;;;;;3.00;1.40;;;;;;;;;;5094120;28;20040;-64
2022/08/01 03:32:12;;;;;;;5.22;1.40;;;;;;;;;;5094110;28;20024;-65
2022/08/01 03:34:38;;;;;;;6.00;1.63;;;;;;;;;;5093719;28;20107;-65
2022/08/01 03:37:26;;;;;;;4.60;1.70;;;;;;;;;;5094007;28;20141;-65
2022/08/01 03:40:04;;;;;;;9.30;2.70;;;;;;;;;;5093938;28;20020;-65
2022/08/01 03:42:37;;;;;;;7.82;1.70;;;;;;;;;;5093875;28;20104;-65
2022/08/01 03:45:10;;;;;;;8.98;2.35;;;;;;;;;;5093986;28;20012;-63
2022/08/01 03:47:36;;;;;;;6.78;1.80;;;;;;;;;;5093794;28;20067;-65
2022/08/01 03:50:08;;;;;;;7.90;1.60;;;;;;;;;;5093775;28;20116;-63
2022/08/01 03:52:37;;;;;;;10.85;2.50;;;;;;;;;;5093810;28;20500;-64
2022/08/01 03:55:06;;;;;;;7.05;1.60;;;;;;;;;;5093581;28;20032;-65
2022/08/01 03:57:33;;;;;;;5.10;1.60;;;;;;;;;;5093380;28;20484;-64
2022/08/01 04:00:00;;;;;;;6.15;1.50;;;;;;;;;;5093614;28;20027;-65
2022/08/01 04:02:27;;;;;;;6.72;1.50;;;;;;;;;;5093549;28;20046;-64
2022/08/01 04:04:53;;;;;;;8.75;1.80;;;;;;;;;;5093182;28;20027;-65
2022/08/01 04:07:28;;;;;;;5.20;1.75;;;;;;;;;;5091858;28;20034;-65
2022/08/01 04:09:53;;;;;;;6.25;1.60;;;;;;;;;;5093410;28;20033;-65
2022/08/01 04:12:19;;;;;;;3.03;1.55;;;;;;;;;;5093209;28;20020;-64
2022/08/01 04:14:46;;;;;;;6.05;1.77;;;;;;;;;;5092076;28;20028;-65
2022/08/01 04:17:11;;;;;;;5.25;2.00;;;;;;;;;;5092988;28;20024;-65
2022/08/01 04:19:37;;;;;;;4.78;1.70;;;;;;;;;;5093021;28;20540;-64
2022/08/01 04:22:04;;;;;;;7.45;1.73;;;;;;;;;;5092734;28;20040;-65
2022/08/01 04:24:32;;;;;;;3.60;1.88;;;;;;;;;;5093308;28;20032;-65
2022/08/01 04:27:01;;;;;;;7.88;1.83;;;;;;;;;;5093190;28;20380;-65
2022/08/01 04:29:29;;;;;;;8.82;2.00;;;;;;;;;;5092778;28;20464;-64
2022/08/01 04:31:56;;;;;;;5.22;1.77;;;;;;;;;;5092953;28;20081;-64
2022/08/01 04:34:25;;;;;;;12.98;1.85;;;;;;;;;;5092689;28;20031;-64
2022/08/01 04:36:54;;;;;;;6.80;1.67;;;;;;;;;;5092898;28;20060;-64
2022/08/01 04:39:23;;;;;;;11.32;2.08;;;;;;;;;;5092560;28;20142;-65
2022/08/01 04:41:50;;;;;;;8.05;2.13;;;;;;;;;;5092673;28;20520;-65
2022/08/01 04:44:16;;;;;;;5.70;2.03;;;;;;;;;;5092645;28;20358;-65
2022/08/01 04:46:43;;;;;;;6.90;2.30;;;;;;;;;;5092350;28;20039;-64
2022/08/01 04:49:11;;;;;;;12.50;2.28;;;;;;;;;;5092527;28;20025;-64
2022/08/01 04:51:49;;;;;;;9.35;2.05;;;;;;;;;;5092465;28;20089;-65
2022/08/01 04:54:14;;;;;;;6.88;2.00;;;;;;;;;;5092350;28;20028;-64
2022/08/01 04:56:41;;;;;;;13.38;2.33;;;;;;;;;;5091146;28;20130;-64
2022/08/01 05:01:51;;;;;;;11.20;2.28;;;;;;;;;;5092149;28;20043;-65
2022/08/01 05:04:16;;;;;;;7.13;1.98;;;;;;;;;;5092251;28;20024;-65
2022/08/01 05:06:42;;;;;;;8.68;2.10;;;;;;;;;;5092277;28;20054;-65
2022/08/01 05:09:08;;;;;;;7.10;2.22;;;;;;;;;;5092301;28;20027;-64
2022/08/01 05:11:33;;;;;;;10.48;2.25;;;;;;;;;;5092036;28;20032;-65
2022/08/01 05:13:59;;;;;;;8.88;2.17;;;;;;;;;;5091908;28;20032;-64
2022/08/01 05:16:24;;;;;;;9.90;2.17;;;;;;;;;;5091852;28;20076;-65
2022/08/01 05:18:50;;;;;;;9.27;2.40;;;;;;;;;;5091999;28;20085;-64
2022/08/01 05:21:15;;;;;;;7.00;1.98;;;;;;;;;;5091533;28;20130;-65
2022/08/01 05:23:41;;;;;;;5.00;2.08;;;;;;;;;;5091902;28;20039;-64
2022/08/01 05:26:08;;;;;;;5.78;2.15;;;;;;;;;;5091642;28;20024;-64
2022/08/01 05:28:33;;;;;;;5.53;1.83;;;;;;;;;;5091984;28;20398;-65
2022/08/01 05:30:59;;;;;;;10.85;2.00;;;;;;;;;;5091291;28;20012;-63
2022/08/01 05:33:24;;;;;;;11.13;2.58;;;;;;;;;;5091587;28;20024;-64
2022/08/01 05:35:50;;;;;;;6.35;1.90;;;;;;;;;;5091622;28;20126;-64
2022/08/01 05:38:16;;;;;;;6.65;2.60;;;;;;;;;;5091629;28;20050;-64
2022/08/01 05:40:41;;;;;;;5.88;2.05;;;;;;;;;;5091651;28;20028;-64
2022/08/01 05:43:07;;;;;;;7.68;2.22;;;;;;;;;;5068604;28;20501;-64
2022/08/01 05:45:32;;;;;;;7.97;2.13;;;;;;;;;;5050883;28;20517;-63
2022/08/01 05:47:58;;;;;;;9.73;2.10;;;;;;;;;;5051227;28;20044;-63
2022/08/01 05:50:23;;;;;;;7.97;2.10;;;;;;;;;;5051286;28;20028;-65
2022/08/01 05:52:49;;;;;;;8.90;2.75;;;;;;;;;;5051074;28;20215;-63
2022/08/01 05:55:14;;;;;;;5.93;2.13;;;;;;;;;;5050931;28;20024;-64
2022/08/01 05:57:40;;;;;;;7.22;2.15;;;;;;;;;;5051307;28;20143;-65
2022/08/01 06:00:06;;;;;;;7.50;2.22;;;;;;;;;;5050947;28;20108;-63
2022/08/01 06:02:32;;;;;;;8.35;1.90;;;;;;;;;;5051148;28;20029;-63
2022/08/01 06:04:57;;;;;;;5.10;1.65;;;;;;;;;;5051029;28;20382;-65
2022/08/01 06:07:23;;;;;;;7.40;2.00;;;;;;;;;;5050927;28;20042;-64
2022/08/01 06:09:48;;;;;;;4.63;1.80;;;;;;;;;;5051082;28;20094;-64
2022/08/01 06:12:14;;;;;;;6.55;1.80;;;;;;;;;;5050973;28;20397;-64
2022/08/01 06:14:39;;;;;;;13.13;2.10;;;;;;;;;;5050575;28;20033;-65
2022/08/01 06:17:05;;;;;;;8.35;1.95;;;;;;;;;;5049731;28;20529;-64
2022/08/01 06:19:30;;;;;;;8.15;1.98;;;;;;;;;;5050827;28;20502;-64
2022/08/01 06:21:56;;;;;;;6.75;1.90;;;;;;;;;;5066129;28;20254;-64
2022/08/01 06:24:23;;;;;;;8.98;2.00;;;;;;;;;;5091255;28;20437;-65
2022/08/01 06:26:49;;;;;;;3.03;1.55;;;;;;;;;;5091106;28;20093;-64
2022/08/01 06:29:15;;;;;;;4.50;1.88;;;;;;;;;;5090774;28;20032;-64
2022/08/01 06:31:40;;;;;;;5.82;1.80;;;;;;;;;;5091426;28;20028;-65
2022/08/01 06:34:06;;;;;;;4.43;1.63;;;;;;;;;;5090954;28;20063;-65
2022/08/01 06:36:31;;;;;;;6.00;1.80;;;;;;;;;;5091680;28;20059;-65
2022/08/01 06:38:57;;;;;;;9.93;1.80;;;;;;;;;;5095152;28;20157;-65
2022/08/01 06:41:22;;;;;;;7.70;1.90;;;;;;;;;;5094987;28;20039;-65
2022/08/01 06:43:48;;;;;;;4.68;1.70;;;;;;;;;;5094966;28;20024;-65
2022/08/01 06:46:13;;;;;;;3.55;1.73;;;;;;;;;;5094845;28;20111;-65
2022/08/01 06:48:39;;;;;;;4.78;2.00;;;;;;;;;;5095000;28;20024;-65
2022/08/01 06:51:08;;;;;;;6.47;1.50;;;;;;;;;;5094885;28;20034;-65
2022/08/01 06:53:38;;;;;;;4.82;1.80;;;;;;;;;;5095037;28;20115;-64
2022/08/01 06:56:04;;;;;;;6.82;1.80;;;;;;;;;;5094848;28;20036;-65
2022/08/01 06:58:30;;;;;;;10.20;2.08;;;;;;;;;;5076969;28;20041;-64
2022/08/01 07:00:55;;;;;;;7.82;1.80;;;;;;;;;;5075146;28;20024;-63
2022/08/01 07:03:21;;;;;;;7.15;2.05;;;;;;;;;;5075348;28;20429;-64
2022/08/01 07:05:46;;;;;;;4.85;1.77;;;;;;;;;;5063401;28;20033;-63
2022/08/01 07:08:12;;;;;;;5.00;1.90;;;;;;;;;;5055303;28;20017;-64
2022/08/01 07:10:37;;;;;;;11.13;2.05;;;;;;;;;;5054931;28;20029;-63
2022/08/01 07:13:03;;;;;;;6.78;2.00;;;;;;;;;;5064626;28;20029;-66
2022/08/01 07:15:28;;;;;;;10.35;2.03;;;;;;;;;;5074934;28;20032;-67
2022/08/01 07:17:54;;;;;;;7.15;1.80;;;;;;;;;;5075269;28;20020;-66
2022/08/01 07:20:19;;;;;;;13.40;2.67;;;;;;;;;;5075074;28;20056;-65
2022/08/01 07:22:45;;;;;;;7.93;1.90;;;;;;;;;;5089146;28;20127;-65
2022/08/01 07:25:10;;;;;;;5.45;1.83;;;;;;;;;;5095356;28;20043;-66
2022/08/01 07:27:37;;;;;;;4.25;2.38;;;;;;;;;;5094525;28;20020;-66
2022/08/01 07:30:04;;;;;;;7.45;2.00;;;;;;;;;;5094055;28;20110;-66
2022/08/01 07:32:30;;;;;;;5.90;1.92;;;;;;;;;;5063313;28;20048;-65
2022/08/01 07:34:56;;;;;;;9.85;2.30;;;;;;;;;;5063747;28;20037;-65
2022/08/01 07:37:23;;;;;;;6.60;2.47;;;;;;;;;;5062079;28;20490;-65
2022/08/01 07:39:49;;;;;;;4.97;2.10;;;;;;;;;;5052558;28;20088;-65
2022/08/01 07:42:15;;;;;;;4.93;2.20;;;;;;;;;;5073526;28;20021;-65
2022/08/01 07:44:40;;;;;;;7.72;2.00;;;;;;;;;;5074447;28;20389;-65
2022/08/01 07:47:06;;;;;;;7.35;3.15;;;;;;;;;;5067750;28;20099;-66
2022/08/01 07:49:32;;;;;;;7.97;2.42;;;;;;;;;;5074423;28;20473;-64
2022/08/01 07:51:57;;;;;;;7.47;2.42;;;;;;;;;;5074647;28;20029;-64
2022/08/01 07:54:27;;;;;;;7.20;2.08;;;;;;;;;;5074561;28;20036;-65
2022/08/01 07:56:54;;;;;;;8.15;2.22;;;;;;;;;;5074297;28;20040;-65
2022/08/01 07:59:22;;;;;;;10.32;2.13;;;;;;;;;;5074466;28;20060;-65
2022/08/01 08:01:50;;;;;;;8.70;2.30;;;;;;;;;;5074380;28;20043;-65
2022/08/01 08:04:15;;;;;;;5.63;2.33;;;;;;;;;;5074269;28;20044;-65
2022/08/01 08:06:41;;;;;;;5.60;2.50;;;;;;;;;;5074142;28;20089;-65
2022/08/01 08:09:06;;;;;;;4.82;2.47;;;;;;;;;;5070770;28;20021;-65
2022/08/01 08:11:32;;;;;;;8.88;2.30;;;;;;;;;;5065364;28;20041;-64
2022/08/01 08:13:58;;;;;;;4.32;2.38;;;;;;;;;;5069023;28;20486;-63
2022/08/01 08:16:23;;;;;;;5.22;2.05;;;;;;;;;;5073943;28;20023;-65
2022/08/01 08:18:49;;;;;;;4.93;2.38;;;;;;;;;;5073935;28;20032;-65
2022/08/01 08:21:14;;;;;;;7.38;2.40;;;;;;;;;;5067009;28;20090;-63
2022/08/01 08:26:25;;;;;;;3.88;2.25;;;;;;;;;;5053622;28;20070;-65
2022/08/01 08:28:50;;;;;;;4.15;2.65;;;;;;;;;;5053482;28;20048;-64
2022/08/01 08:31:16;;;;;;;6.38;2.42;;;;;;;;;;5053925;28;20036;-65
2022/08/01 08:33:41;;;;;;;5.93;2.53;;;;;;;;;;5053655;28;20047;-64
2022/08/01 08:36:08;;;;;;;5.32;2.40;;;;;;;;;;5053343;28;20032;-64
2022/08/01 08:38:34;;;;;;;7.43;2.38;;;;;;;;;;5053634;28;20049;-65
2022/08/01 08:40:59;;;;;;;9.80;2.42;;;;;;;;;;5053344;28;20060;-63
2022/08/01 08:43:25;;;;;;;7.05;2.60;;;;;;;;;;5053434;28;20083;-64
2022/08/01 08:45:52;;;;;;;4.68;2.40;;;;;;;;;;5053390;28;20039;-64
2022/08/01 08:48:18;;;;;;;7.13;2.55;;;;;;;;;;5053284;28;20466;-65
2022/08/01 08:50:46;;;;;;;4.65;2.65;;;;;;;;;;5053328;28;20159;-65
2022/08/01 08:53:13;;;;;;;5.10;2.40;;;;;;;;;;5053218;28;20104;-65
2022/08/01 08:55:42;;;;;;;6.85;2.70;;;;;;;;;;5053270;28;20037;-65
2022/08/01 08:58:17;;;;;;;7.83;2.87;;;;;;;;;;5053100;28;20459;-65
2022/08/01 09:00:43;;;;;;;8.88;3.70;;;;;;;;;;5052462;28;20272;-65
2022/08/01 09:03:09;;;;;;;11.45;4.03;;;;;;;;;;5053280;28;20025;-65
2022/08/01 09:05:34;;;;;;;8.30;4.15;;;;;;;;;;5053069;28;20462;-65
2022/08/01 09:08:00;;;;;;;8.57;5.00;;;;;;;;;;5052955;28;20029;-65
2022/08/01 09:10:25;;;;;;;11.15;4.82;;;;;;;;;;5053007;28;20032;-65
2022/08/01 09:13:10;;;;;;;10.98;4.95;;;;;;;;;;5052935;28;20025;-64
2022/08/01 09:15:41;;;;;;;9.52;4.78;;;;;;;;;;5052830;28;20060;-65
2022/08/01 09:18:07;;;;;;;15.48;7.20;;;;;;;;;;5052869;28;20035;-65
2022/08/01 09:20:36;;;;;;;10.05;4.72;;;;;;;;;;5052838;28;20024;-66
2022/08/01 09:23:02;;;;;;;10.30;4.53;;;;;;;;;;5084824;28;20377;-64
2022/08/01 09:25:32;;;;;;;11.98;5.80;;;;;;;;;;5093043;28;20534;-65
2022/08/01 09:28:06;;;;;;;11.50;5.18;;;;;;;;;;5092870;28;20032;-64
2022/08/01 09:30:38;;;;;;;13.75;6.40;;;;;;;;;;5092855;28;20036;-65
2022/08/01 09:33:04;;;;;;;8.70;5.20;;;;;;;;;;5092846;28;20045;-65
2022/08/01 09:35:36;;;;;;;10.75;5.78;;;;;;;;;;5073721;28;20040;-64
2022/08/01 09:38:12;;;;;;;23.73;7.40;;;;;;;;;;5072483;28;20112;-65
2022/08/01 09:40:55;;;;;;;13.18;7.05;;;;;;;;;;5072341;28;20016;-65
2022/08/01 09:43:23;;;;;;;13.13;6.43;;;;;;;;;;5072292;28;20035;-65
2022/08/01 09:45:49;;;;;;;16.45;6.90;;;;;;;;;;5072275;28;20024;-66
2022/08/01 09:48:15;;;;;;;11.85;6.47;;;;;;;;;;5072336;28;20025;-65
2022/08/01 09:50:44;;;;;;;17.98;6.80;;;;;;;;;;5072030;28;20028;-65
2022/08/01 09:53:10;;;;;;;11.80;6.78;;;;;;;;;;5072290;28;20047;-65
2022/08/01 09:55:36;;;;;;;11.55;7.60;;;;;;;;;;5072199;28;20032;-65
2022/08/01 09:58:04;;;;;;;15.85;7.40;;;;;;;;;;5072143;28;20025;-65
2022/08/01 10:00:30;;;;;;;18.50;7.30;;;;;;;;;;5072328;28;20039;-65
2022/08/01 10:02:55;;;;;;;18.13;7.68;;;;;;;;;;5072022;28;20041;-65
2022/08/01 10:05:34;;;;;;;13.15;6.63;;;;;;;;;;5072280;28;20024;-65
2022/08/01 10:08:03;;;;;;;16.95;6.75;;;;;;;;;;5072114;28;20016;-65
2022/08/01 10:10:29;;;;;;;14.60;7.33;;;;;;;;;;5071963;28;20033;-65
2022/08/01 10:12:56;;;;;;;13.85;7.10;;;;;;;;;;5071369;28;20034;-64
2022/08/01 10:15:23;;;;;;;13.85;7.57;;;;;;;;;;5072167;28;20493;-65
2022/08/01 10:17:57;;;;;;;11.80;6.40;;;;;;;;;;5072109;28;20024;-65
2022/08/01 10:20:29;;;;;;;14.75;6.78;;;;;;;;;;5072032;28;20438;-65
2022/08/01 10:22:57;;;;;;;15.07;6.85;;;;;;;;;;5087252;28;20366;-65
2022/08/01 10:25:26;;;;;;;15.40;6.72;;;;;;;;;;5092193;28;20063;-66
2022/08/01 10:27:56;;;;;;;15.57;7.45;;;;;;;;;;5092398;28;20372;-65
2022/08/01 10:30:22;;;;;;;12.25;6.60;;;;;;;;;;5089692;28;20044;-66
2022/08/01 10:32:49;;;;;;;12.27;7.00;;;;;;;;;;5051754;28;20021;-66
2022/08/01 10:35:17;;;;;;;13.18;6.65;;;;;;;;;;5051713;28;20033;-66
2022/08/01 10:37:45;;;;;;;11.02;6.28;;;;;;;;;;5052282;28;20036;-65
2022/08/01 10:40:12;;;;;;;10.93;6.30;;;;;;;;;;5051758;28;20021;-66
2022/08/01 10:42:43;;;;;;;13.80;6.55;;;;;;;;;;5051652;28;20021;-65
2022/08/01 10:45:17;;;;;;;13.95;6.22;;;;;;;;;;5051847;28;20096;-65
2022/08/01 10:47:56;;;;;;;16.80;6.72;;;;;;;;;;5051602;28;20499;-65
2022/08/01 10:50:34;;;;;;;12.40;5.93;;;;;;;;;;5051604;28;20033;-66
2022/08/01 10:53:21;;;;;;;11.68;6.03;;;;;;;;;;5051759;28;20017;-65
2022/08/01 10:55:47;;;;;;;10.52;5.80;;;;;;;;;;5051806;28;20028;-63
2022/08/01 10:58:13;;;;;;;8.30;5.60;;;;;;;;;;5051632;28;20025;-63
2022/08/01 11:00:38;;;;;;;10.70;5.50;;;;;;;;;;5051496;28;20024;-65
2022/08/01 11:03:04;;;;;;;9.98;5.13;;;;;;;;;;5051625;28;20108;-65
2022/08/01 11:05:35;;;;;;;13.20;5.75;;;;;;;;;;5051307;28;20462;-66
2022/08/01 11:08:20;;;;;;;10.70;5.28;;;;;;;;;;5051703;28;20036;-63
2022/08/01 11:10:47;;;;;;;6.90;4.50;;;;;;;;;;5050037;28;20025;-66
2022/08/01 11:13:12;;;;;;;10.00;4.57;;;;;;;;;;5051656;28;20029;-66
2022/08/01 11:15:39;;;;;;;9.10;4.45;;;;;;;;;;5051501;28;20024;-66
2022/08/01 11:18:26;;;;;;;5.93;4.00;;;;;;;;;;5051456;28;20028;-66
2022/08/01 11:21:00;;;;;;;9.27;3.95;;;;;;;;;;5051148;28;20025;-66
2022/08/01 11:23:32;;;;;;;6.15;4.40;;;;;;;;;;5093499;28;20146;-66
2022/08/01 11:26:00;;;;;;;8.30;4.13;;;;;;;;;;5095416;28;20509;-65
2022/08/01 11:28:29;;;;;;;7.50;4.07;;;;;;;;;;5095127;28;20036;-66
2022/08/01 11:30:55;;;;;;;7.03;4.13;;;;;;;;;;5095139;28;20032;-65
2022/08/01 11:33:39;;;;;;;9.77;4.07;;;;;;;;;;5095047;28;20039;-65
2022/08/01 11:36:15;;;;;;;7.60;4.03;;;;;;;;;;5094990;28;20397;-66
2022/08/01 11:38:44;;;;;;;8.32;4.18;;;;;;;;;;5094887;28;20024;-66
2022/08/01 11:41:11;;;;;;;7.88;4.18;;;;;;;;;;5095076;28;20611;-66
2022/08/01 11:43:59;;;;;;;7.68;4.20;;;;;;;;;;5094988;28;20497;-64
2022/08/01 11:46:48;;;;;;;5.32;3.80;;;;;;;;;;5094826;28;20035;-66
2022/08/01 11:49:34;;;;;;;8.95;4.30;;;;;;;;;;5094585;28;20032;-66
2022/08/01 11:52:00;;;;;;;11.70;4.63;;;;;;;;;;5090648;28;20028;-66
2022/08/01 11:54:37;;;;;;;4.50;3.55;;;;;;;;;;5074518;28;20078;-66
2022/08/01 11:57:06;;;;;;;6.25;4.00;;;;;;;;;;5074579;28;20479;-66
2022/08/01 11:59:41;;;;;;;6.05;3.97;;;;;;;;;;5074413;28;20393;-66
2022/08/01 12:02:24;;;;;;;5.65;3.83;;;;;;;;;;5074259;28;20385;-63
2022/08/01 12:05:04;;;;;;;7.90;4.03;;;;;;;;;;5073958;28;20029;-64
2022/08/01 12:07:32;;;;;;;6.18;3.88;;;;;;;;;;5074474;28;20111;-65
2022/08/01 12:10:01;;;;;;;6.55;4.20;;;;;;;;;;5074237;28;20382;-65
2022/08/01 12:12:28;;;;;;;6.32;4.20;;;;;;;;;;5074248;28;20116;-65
2022/08/01 12:14:58;;;;;;;9.60;4.15;;;;;;;;;;5074023;28;20118;-64
2022/08/01 12:17:41;;;;;;;10.45;5.05;;;;;;;;;;5073736;28;20020;-64
2022/08/01 12:20:10;;;;;;;6.63;4.20;;;;;;;;;;5072755;28;20316;-64
2022/08/01 12:22:36;;;;;;;5.93;4.15;;;;;;;;;;5086594;28;20048;-64
2022/08/01 12:25:10;;;;;;;6.85;4.35;;;;;;;;;;5094001;28;20031;-63
2022/08/01 12:27:37;;;;;;;6.13;4.50;;;;;;;;;;5094244;28;20035;-64
2022/08/01 12:30:26;;;;;;;7.10;4.32;;;;;;;;;;5094014;28;20065;-64
2022/08/01 12:32:53;;;;;;;6.47;4.05;;;;;;;;;;5093784;28;20073;-64
2022/08/01 12:35:22;;;;;;;14.75;5.35;;;;;;;;;;5092854;28;20177;-64
2022/08/01 12:37:53;;;;;;;4.82;3.80;;;;;;;;;;5093976;28;20032;-66
2022/08/01 12:40:20;;;;;;;8.05;3.30;;;;;;;;;;5093914;28;20415;-65
2022/08/01 12:42:48;;;;;;;4.18;3.60;;;;;;;;;;5093544;28;20389;-65
2022/08/01 12:45:23;;;;;;;7.47;3.70;;;;;;;;;;5093639;28;20020;-65
2022/08/01 12:47:50;;;;;;;7.35;3.30;;;;;;;;;;5093796;28;20043;-65
2022/08/01 12:50:19;;;;;;;5.22;3.50;;;;;;;;;;5093708;28;20034;-67
2022/08/01 12:52:46;;;;;;;4.97;3.53;;;;;;;;;;5075644;28;20051;-65
2022/08/01 12:55:19;;;;;;;8.00;3.40;;;;;;;;;;5058104;28;20036;-64
2022/08/01 12:57:51;;;;;;;6.70;3.47;;;;;;;;;;5053312;28;20060;-64
2022/08/01 13:00:25;;;;;;;6.30;3.38;;;;;;;;;;5063007;28;20521;-66
2022/08/01 13:03:06;;;;;;;6.68;3.53;;;;;;;;;;5073114;28;20029;-65
2022/08/01 13:05:48;;;;;;;7.80;3.10;;;;;;;;;;5073122;28;20028;-63
2022/08/01 13:08:16;;;;;;;4.80;3.05;;;;;;;;;;5066525;28;20021;-63
2022/08/01 13:10:42;;;;;;;6.15;3.40;;;;;;;;;;5072884;28;20035;-65
2022/08/01 13:13:09;;;;;;;4.47;3.10;;;;;;;;;;5073065;28;20477;-64
2022/08/01 13:15:38;;;;;;;4.38;3.00;;;;;;;;;;5072385;28;20036;-64
2022/08/01 13:18:23;;;;;;;7.30;3.00;;;;;;;;;;5073010;28;20535;-65
2022/08/01 13:20:49;;;;;;;4.40;2.90;;;;;;;;;;5072471;28;20036;-65
2022/08/01 13:23:19;;;;;;;4.65;2.88;;;;;;;;;;5090946;28;20039;-63
2022/08/01 13:25:56;;;;;;;4.75;1.88;;;;;;;;;;5092867;28;20028;-64
2022/08/01 13:28:24;;;;;;;3.20;1.60;;;;;;;;;;5093043;28;20020;-64
2022/08/01 13:30:54;;;;;;;4.28;2.10;;;;;;;;;;5092571;28;20384;-65
2022/08/01 13:33:20;;;;;;;3.95;2.10;;;;;;;;;;5092777;28;20020;-64
2022/08/01 13:35:47;;;;;;;3.70;2.40;;;;;;;;;;5092667;28;20032;-64
2022/08/01 13:38:13;;;;;;;5.13;2.47;;;;;;;;;;5092801;28;20055;-64
2022/08/01 13:40:39;;;;;;;4.68;2.40;;;;;;;;;;5092758;28;20032;-65
2022/08/01 13:43:04;;;;;;;3.33;2.00;;;;;;;;;;5092858;28;20031;-65
2022/08/01 13:45:30;;;;;;;2.38;1.90;;;;;;;;;;5092182;28;20036;-65
2022/08/01 13:47:55;;;;;;;2.55;1.50;;;;;;;;;;5092553;28;20100;-66
2022/08/01 13:50:21;;;;;;;1.67;1.35;;;;;;;;;;5092677;28;20028;-65
2022/08/01 13:52:46;;;;;;;3.83;1.40;;;;;;;;;;5092448;28;20020;-65
2022/08/01 13:55:12;;;;;;;2.72;1.40;;;;;;;;;;5092519;28;20028;-65
2022/08/01 13:57:38;;;;;;;1.90;1.30;;;;;;;;;;5092238;28;20070;-64
2022/08/01 14:00:07;;;;;;;2.47;1.55;;;;;;;;;;5092367;28;20028;-65
2022/08/01 14:02:32;;;;;;;3.93;1.90;;;;;;;;;;5092529;28;20024;-64
2022/08/01 14:04:58;;;;;;;2.42;1.80;;;;;;;;;;5092370;28;20612;-65
2022/08/01 14:07:24;;;;;;;6.53;2.25;;;;;;;;;;5092207;28;20021;-65
2022/08/01 14:09:50;;;;;;;5.10;2.03;;;;;;;;;;5092251;28;20026;-65
2022/08/01 14:12:15;;;;;;;11.48;2.60;;;;;;;;;;5092266;28;20225;-65
2022/08/01 14:14:41;;;;;;;6.93;2.10;;;;;;;;;;5092075;28;20035;-64
2022/08/01 14:17:06;;;;;;;4.75;2.33;;;;;;;;;;5092369;28;20103;-65
2022/08/01 14:19:32;;;;;;;15.43;2.85;;;;;;;;;;5092236;28;20075;-65
2022/08/01 14:21:58;;;;;;;3.45;2.53;;;;;;;;;;5091663;28;20105;-65
2022/08/01 14:24:24;;;;;;;4.05;2.83;;;;;;;;;;5091988;28;20427;-65
2022/08/01 14:26:49;;;;;;;4.70;2.80;;;;;;;;;;5091974;28;20020;-65
2022/08/01 14:29:15;;;;;;;4.15;2.78;;;;;;;;;;5092233;28;20473;-65
2022/08/01 14:31:40;;;;;;;5.45;2.95;;;;;;;;;;5092317;28;20384;-64
2022/08/01 14:34:06;;;;;;;6.40;3.20;;;;;;;;;;5092099;28;20073;-64
2022/08/01 14:36:32;;;;;;;3.45;2.72;;;;;;;;;;5091955;28;20024;-65
2022/08/01 14:38:58;;;;;;;5.30;3.50;;;;;;;;;;5092138;28;20052;-65
2022/08/01 14:41:23;;;;;;;6.40;3.28;;;;;;;;;;5091746;28;20020;-65
2022/08/01 14:43:49;;;;;;;6.07;2.80;;;;;;;;;;5057394;28;20044;-65
2022/08/01 14:46:14;;;;;;;5.63;3.10;;;;;;;;;;5070822;28;20358;-65
2022/08/01 14:48:40;;;;;;;5.82;3.30;;;;;;;;;;5071846;28;20032;-65
2022/08/01 14:51:06;;;;;;;5.53;3.05;;;;;;;;;;5071584;28;20027;-65
2022/08/01 14:53:33;;;;;;;3.58;2.90;;;;;;;;;;5071784;28;20143;-64